地図

経路データ

SID SEASON NUMBER BASIN SUBBASIN NAME ISO_TIME NATURE LAT LON WMO_WIND WMO_PRES WMO_AGENCY TRACK_TYPE DIST2LAND LANDFALL IFLAG USA_AGENCY USA_ATCF_ID USA_LAT USA_LON USA_RECORD USA_STATUS USA_WIND USA_PRES USA_SSHS USA_R34_NE USA_R34_SE USA_R34_SW USA_R34_NW USA_R50_NE USA_R50_SE USA_R50_SW USA_R50_NW USA_R64_NE USA_R64_SE USA_R64_SW USA_R64_NW USA_POCI USA_ROCI USA_RMW USA_EYE TOKYO_LAT TOKYO_LON TOKYO_GRADE TOKYO_WIND TOKYO_PRES TOKYO_R50_DIR TOKYO_R50_LONG TOKYO_R50_SHORT TOKYO_R30_DIR TOKYO_R30_LONG TOKYO_R30_SHORT TOKYO_LAND CMA_LAT CMA_LON CMA_CAT CMA_WIND CMA_PRES HKO_LAT HKO_LON HKO_CAT HKO_WIND HKO_PRES NEWDELHI_LAT NEWDELHI_LON NEWDELHI_GRADE NEWDELHI_WIND NEWDELHI_PRES NEWDELHI_CI NEWDELHI_DP NEWDELHI_POCI REUNION_LAT REUNION_LON REUNION_TYPE REUNION_WIND REUNION_PRES REUNION_TNUM REUNION_CI REUNION_RMW REUNION_R34_NE REUNION_R34_SE REUNION_R34_SW REUNION_R34_NW REUNION_R50_NE REUNION_R50_SE REUNION_R50_SW REUNION_R50_NW REUNION_R64_NE REUNION_R64_SE REUNION_R64_SW REUNION_R64_NW BOM_LAT BOM_LON BOM_TYPE BOM_WIND BOM_PRES BOM_TNUM BOM_CI BOM_RMW BOM_R34_NE BOM_R34_SE BOM_R34_SW BOM_R34_NW BOM_R50_NE BOM_R50_SE BOM_R50_SW BOM_R50_NW BOM_R64_NE BOM_R64_SE BOM_R64_SW BOM_R64_NW BOM_ROCI BOM_POCI BOM_EYE BOM_POS_METHOD BOM_PRES_METHOD NADI_LAT NADI_LON NADI_CAT NADI_WIND NADI_PRES WELLINGTON_LAT WELLINGTON_LON WELLINGTON_WIND WELLINGTON_PRES DS824_LAT DS824_LON DS824_STAGE DS824_WIND DS824_PRES TD9636_LAT TD9636_LON TD9636_STAGE TD9636_WIND TD9636_PRES TD9635_LAT TD9635_LON TD9635_WIND TD9635_PRES TD9635_ROCI NEUMANN_LAT NEUMANN_LON NEUMANN_CLASS NEUMANN_WIND NEUMANN_PRES MLC_LAT MLC_LON MLC_CLASS MLC_WIND MLC_PRES USA_GUST BOM_GUST BOM_GUST_PER REUNION_GUST REUNION_GUST_PER USA_SEAHGT USA_SEARAD_NE USA_SEARAD_SE USA_SEARAD_SW USA_SEARAD_NW STORM_SPEED STORM_DIR
1952258N18178 1952 66 WP MM OLIVE 1952-09-13 12:00:00 TS 18.0000 178.000 main 2359 2359 O________OOO__ jtwc_wp WP131952 18.0000 178.000 30 -1 18.0000 178.000 TC 30 18.0000 178.000 1 30 18.0000 178.000 30 1004 60 9 284
1952258N18178 1952 66 WP MM OLIVE 1952-09-13 15:00:00 TS 18.1056 177.553 main 2398 2398 P________PPP__ WP131952 18.1203 177.545 30 -1 18.1203 177.545 TC 30 18.0614 177.575 1 31 18.1203 177.545 30 1003 60 9 282
1952258N18178 1952 66 WP MM OLIVE 1952-09-13 18:00:00 TS 18.1795 177.110 main 2446 2446 O________OPO__ jtwc_wp WP131952 18.2000 177.100 30 -1 18.2000 177.100 TC 30 18.1179 177.140 1 32 18.2000 177.100 30 1003 60 8 277
1952258N18178 1952 66 WP MM OLIVE 1952-09-13 21:00:00 TS 18.2025 176.670 main 2487 2487 P________PPP__ WP131952 18.2148 176.665 32 -1 18.2148 176.665 TC 32 18.1655 176.685 1 33 18.2148 176.665 32 1002 90 9 271
1952258N18178 1952 66 WP MM OLIVE 1952-09-14 00:00:00 TS 18.2000 176.200 main 2538 2538 O________OOO__ jtwc_wp WP131952 18.2000 176.200 35 0 18.2000 176.200 TC 35 18.2000 176.200 2 35 18.2000 176.200 35 1001 120 10 270
1952258N18178 1952 66 WP MM OLIVE 1952-09-14 03:00:00 TS 18.1993 175.668 main 2590 2590 P________PPP__ WP131952 18.1925 175.665 35 0 18.1925 175.665 TC 35 18.2199 175.678 2 36 18.1925 175.665 35 1000 120 10 270
1952258N18178 1952 66 WP MM OLIVE 1952-09-14 06:00:00 TS 18.2087 175.107 main 2651 2651 O________OPO__ jtwc_wp WP131952 18.2000 175.100 35 0 18.2000 175.100 TC 35 18.2349 175.129 2 37 18.2000 175.100 35 999 120 11 273
1952258N18178 1952 66 WP MM OLIVE 1952-09-14 09:00:00 TS 18.2518 174.548 main 2710 2710 P________PPP__ WP131952 18.2499 174.543 37 0 18.2499 174.543 TC 37 18.2573 174.566 2 38 18.2499 174.543 37 998 120 11 275
1952258N18178 1952 66 WP MM OLIVE 1952-09-14 12:00:00 TS 18.3000 174.000 main 2762 2762 O________OOO__ jtwc_wp WP131952 18.3000 174.000 40 0 18.3000 174.000 TC 40 18.3000 174.000 2 40 18.3000 174.000 40 997 120 10 273
1952258N18178 1952 66 WP MM OLIVE 1952-09-14 15:00:00 TS 18.3013 173.494 main 2813 2813 P________PPP__ WP131952 18.2772 173.507 42 0 18.2772 173.507 TC 42 18.3738 173.454 2 41 18.2772 173.507 42 995 150 10 272
1952258N18178 1952 66 WP MM OLIVE 1952-09-14 18:00:00 TS 18.3423 172.977 main 2865 2862 O________OPO__ jtwc_wp WP131952 18.3000 173.000 45 0 18.3000 173.000 TC 45 18.4692 172.907 2 42 18.3000 173.000 45 994 180 11 281
1952258N18178 1952 66 WP MM OLIVE 1952-09-14 21:00:00 TS 18.5088 172.395 main 2922 2922 P________PPP__ WP131952 18.4850 172.408 45 0 18.4850 172.408 TC 45 18.5800 172.357 2 43 18.4850 172.408 45 992 210 16 272
1952258N18178 1952 66 WP MM OLIVE 1952-09-15 00:00:00 TS 18.4111 171.267 970 tokyo main 3037 3037 OOO______OOO__ jtwc_wp WP131952 18.7000 171.800 45 0 16.0000 167.000 9 970 0 0 0 16.2000 167.000 4 77 970 18.7000 171.800 TC 45 18.7000 171.800 2 45 18.7000 171.800 45 991 240 19 265
1952258N18178 1952 66 WP MM OLIVE 1952-09-15 03:00:00 TS 18.3579 170.430 main 3130 3116 PPP______PPP__ WP131952 18.8072 171.250 47 0 16.5042 166.801 9 965 0 0 16.5853 167.525 4 87 965 18.8072 171.250 TC 47 18.8233 171.237 2 47 18.8072 171.250 47 989 300 14 269
1952258N18178 1952 66 WP MM OLIVE 1952-09-15 06:00:00 TS 18.3914 169.821 960 tokyo main 3116 3098 OOO______OPO__ jtwc_wp WP131952 18.9000 170.700 50 0 17.0000 167.000 9 960 0 0 0 17.0000 168.000 5 97 960 18.9000 170.700 TC 50 18.9528 170.667 2 50 18.9000 170.700 50 988 360 10 280
1952258N18178 1952 66 WP MM OLIVE 1952-09-15 09:00:00 TS 18.5312 169.426 main 3098 3098 PPP______PPP__ WP131952 19.0499 170.108 52 0 17.4865 167.786 9 955 0 0 17.4699 168.362 5 101 955 19.0499 170.108 TC 52 19.0810 170.088 2 52 19.0499 170.108 52 985 360 7 303
1952258N18178 1952 66 WP MM OLIVE 1952-09-15 12:00:00 TS 18.8000 169.167 950 tokyo main 3110 3101 OOO______OOO__ jtwc_wp WP131952 19.2000 169.500 55 0 18.0000 168.500 9 950 0 0 0 18.0000 168.500 6 106 950 19.2000 169.500 TC 55 19.2000 169.500 2 55 19.2000 169.500 55 983 360 8 310
1952258N18178 1952 66 WP MM OLIVE 1952-09-15 15:00:00 TS 19.0729 168.741 main 3104 3090 PPP______PPP__ WP131952 19.2999 168.892 65 1 18.6216 168.476 9 945 0 0 18.6220 168.400 6 106 947 19.2999 168.892 TC 65 19.2942 168.894 2 65 19.2999 168.892 65 979 390 11 300
1952258N18178 1952 66 WP MM OLIVE 1952-09-15 18:00:00 TS 19.3333 168.200 940 tokyo main 3090 3077 OOO______OOO__ jtwc_wp WP131952 19.4000 168.300 75 1 19.2000 168.000 9 940 0 0 0 19.2000 168.000 6 106 945 19.4000 168.300 TC 75 19.4000 168.300 3 75 19.4000 168.300 75 976 420 12 295
1952258N18178 1952 66 WP MM OLIVE 1952-09-15 21:00:00 TS 19.5657 167.601 main 3080 3053 PPP______PPP__ WP131952 19.5497 167.750 85 2 19.6032 167.303 9 940 0 0 19.5956 167.310 6 111 945 19.5497 167.750 TC 85 19.5464 167.744 3 85 19.5497 167.750 85 972 420 12 290
1952258N18178 1952 66 WP MM OLIVE 1952-09-16 00:00:00 TS 19.7667 166.967 940 tokyo main 3063 3037 OOO______OOO__ jtwc_wp WP131952 19.7000 167.200 95 2 19.9000 166.500 9 940 0 0 0 19.9000 166.500 6 116 945 19.7000 167.200 TC 95 19.7000 167.200 4 95 19.7000 167.200 95 968 420 12 287
1952258N18178 1952 66 WP MM OLIVE 1952-09-16 03:00:00 TS 19.9292 166.361 main 3037 2986 PPP______PPP__ WP131952 19.8074 166.600 102 3 20.1570 165.884 9 940 0 0 20.2147 165.827 6 116 942 19.8074 166.600 TC 102 19.7812 166.657 4 101 19.8074 166.600 102 962 390 12 285
1952258N18178 1952 66 WP MM OLIVE 1952-09-16 06:00:00 TS 20.0740 165.768 940 tokyo main 2986 2931 OOO______OPO__ jtwc_wp WP131952 19.9000 166.000 110 3 20.4000 165.300 9 940 0 0 0 20.5000 165.200 6 116 940 19.9000 166.000 TC 110 19.8440 166.105 4 107 19.9000 166.000 110 956 360 11 285
1952258N18178 1952 66 WP MM OLIVE 1952-09-16 09:00:00 TS 20.2142 165.200 main 2931 2870 PPP______PPP__ WP131952 19.9620 165.472 115 4 20.6998 164.657 9 940 0 0 20.7646 164.600 6 116 940 19.9620 165.472 TC 115 19.9349 165.526 4 113 19.9620 165.472 115 947 300 11 287
1952258N18178 1952 66 WP MM OLIVE 1952-09-16 12:00:00 TS 20.4000 164.600 940 tokyo main 2870 2793 OOO______OOO__ jtwc_wp WP131952 20.1000 164.900 120 4 21.0000 164.000 9 940 0 0 0 21.0000 164.000 6 116 940 20.1000 164.900 TC 120 20.1000 164.900 4 120 20.1000 164.900 120 939 240 13 291
1952258N18178 1952 66 WP MM OLIVE 1952-09-16 15:00:00 TS 20.6715 163.908 main 2793 2716 PPP______PPP__ WP131952 20.4050 164.180 125 4 21.2498 163.350 9 940 0 0 21.1923 163.357 6 116 940 20.4050 164.180 TC 125 20.3717 164.200 4 125 20.4050 164.180 125 934 210 15 294
1952258N18178 1952 66 WP MM OLIVE 1952-09-16 18:00:00 TS 21.0038 163.175 940 tokyo main 2716 2640 OOO______OPO__ jtwc_wp WP131952 20.8000 163.400 130 4 21.5000 162.700 9 940 0 0 0 21.4000 162.700 6 116 940 20.8000 163.400 TC 130 20.7226 163.452 4 130 20.8000 163.400 130 930 180 15 297
1952258N18178 1952 66 WP MM OLIVE 1952-09-16 21:00:00 TS 21.3538 162.460 main 2632 2556 PPP______PPP__ WP131952 21.1696 162.657 135 4 21.7922 162.057 9 940 0 0 21.6847 162.057 6 116 940 21.1696 162.657 TC 135 21.1371 162.678 4 135 21.1696 162.657 135 926 210 15 299
1952258N18178 1952 66 WP MM OLIVE 1952-09-17 00:00:00 TS 21.7500 161.733 940 tokyo main 2541 2458 OOO______OOO__ jtwc_wp WP131952 21.6000 161.900 140 5 22.1000 161.400 9 940 0 0 0 22.0000 161.400 6 116 940 21.6000 161.900 TC 140 21.6000 161.900 4 140 21.6000 161.900 140 923 240 16 301
1952258N18178 1952 66 WP MM OLIVE 1952-09-17 03:00:00 TS 22.1917 160.965 main 2458 2367 PPP______PPP__ WP131952 22.1349 161.093 145 5 22.3774 160.699 9 940 0 0 22.2699 160.699 6 116 940 22.1349 161.093 TC 145 22.0982 161.111 4 142 22.1349 161.093 145 920 300 17 303
1952258N18178 1952 66 WP MM OLIVE 1952-09-17 06:00:00 TS 22.6726 160.204 940 tokyo main 2359 2276 OOO______OPO__ jtwc_wp WP131952 22.7000 160.300 150 5 22.7000 160.000 9 940 0 0 0 22.6000 160.000 6 116 940 22.7000 160.300 TC 150 22.6355 160.327 4 145 22.7000 160.300 150 917 360 17 306
1952258N18178 1952 66 WP MM OLIVE 1952-09-17 09:00:00 TS 23.1664 159.487 main 2269 2193 PPP______PPP__ WP131952 23.2147 159.562 150 5 23.1123 159.327 9 940 0 0 23.0623 159.327 6 116 940 23.2147 159.562 TC 150 23.1798 159.579 4 147 23.2147 159.562 150 915 360 16 308
1952258N18178 1952 66 WP MM OLIVE 1952-09-17 12:00:00 TS 23.6667 158.833 940 tokyo main 2178 2111 OOO______OOO__ jtwc_wp WP131952 23.7000 158.900 150 5 23.6000 158.700 9 940 0 0 0 23.6000 158.700 6 116 940 23.7000 158.900 TC 150 23.7000 158.900 4 150 23.7000 158.900 150 914 360 15 311
1952258N18178 1952 66 WP MM OLIVE 1952-09-17 15:00:00 TS 24.1439 158.250 main 2103 2036 PPP______PPP__ WP131952 24.1647 158.312 155 5 24.1271 158.134 9 940 0 0 24.1348 158.120 6 116 940 24.1647 158.312 TC 155 24.1075 158.308 4 152 24.1647 158.312 155 913 360 14 313
1952258N18178 1952 66 WP MM OLIVE 1952-09-17 18:00:00 TS 24.6159 157.732 940 tokyo main 2028 1968 OOO______OPO__ jtwc_wp WP131952 24.6000 157.800 160 5 24.7000 157.600 9 940 0 0 0 24.7000 157.600 6 116 940 24.6000 157.800 TC 160 24.4956 157.790 4 155 24.6000 157.800 160 912 360 13 315
1952258N18178 1952 66 WP MM OLIVE 1952-09-17 21:00:00 TS 25.0575 157.252 main 1961 1894 PPP______PPP__ WP131952 24.9697 157.341 160 5 25.2625 157.027 9 940 0 0 25.2622 157.134 6 116 940 24.9697 157.341 TC 160 24.9111 157.327 4 157 24.9697 157.341 160 911 360 13 318
1952258N18178 1952 66 WP MM OLIVE 1952-09-18 00:00:00 TS 25.5667 156.800 940 tokyo main 1886 1805 OOO______OOO__ jtwc_wp WP131952 25.4000 156.900 160 5 25.9000 156.500 9 940 0 0 0 25.9000 156.700 6 116 940 25.4000 156.900 TC 160 25.4000 156.900 4 160 25.4000 156.900 160 910 360 15 323
1952258N18178 1952 66 WP MM OLIVE 1952-09-18 03:00:00 TS 26.2152 156.289 main 1805 1725 PPP______PPP__ WP131952 25.9977 156.378 150 5 26.6625 156.033 9 940 0 0 26.6627 156.206 6 116 940 25.9977 156.378 TC 150 25.9727 156.362 4 150 25.9977 156.378 150 915 390 16 328
1952258N18178 1952 66 WP MM OLIVE 1952-09-18 06:00:00 TS 26.9547 155.845 940 tokyo main 1710 1639 OOO______OPO__ jtwc_wp WP131952 26.7000 155.900 140 5 27.5000 155.700 9 940 0 0 0 27.5000 155.800 6 116 940 26.7000 155.900 TC 140 26.6282 155.868 4 140 26.7000 155.900 140 920 420 16 335
1952258N18178 1952 66 WP MM OLIVE 1952-09-18 09:00:00 TS 27.7064 155.519 main 1639 1579 PPP______PPP__ WP131952 27.3899 155.525 130 4 28.3497 155.503 9 940 0 0 28.3497 155.545 6 116 940 27.3899 155.525 TC 130 27.3694 155.489 4 130 27.3899 155.525 130 928 360 16 345
1952258N18178 1952 66 WP MM OLIVE 1952-09-18 12:00:00 TS 28.5333 155.367 940 tokyo main 1579 1517 OOO______OOO__ jtwc_wp WP131952 28.2000 155.300 120 4 29.2000 155.500 9 940 0 0 0 29.2000 155.500 6 116 940 28.2000 155.300 TC 120 28.2000 155.300 4 120 28.2000 155.300 120 936 300 18 355
1952258N18178 1952 66 WP MM OLIVE 1952-09-18 15:00:00 TS 29.4649 155.357 main 1519 1484 PPP______PPP__ WP131952 29.2195 155.167 110 3 30.0074 155.675 9 940 0 0 29.9999 155.667 6 111 942 29.2195 155.167 TC 110 29.1235 155.302 4 112 29.2195 155.167 110 940 300 19 5
1952258N18178 1952 66 WP MM OLIVE 1952-09-18 18:00:00 TS 30.4381 155.569 940 tokyo main 1487 1470 OOO______OPO__ jtwc_wp WP131952 30.3000 155.300 100 3 30.8000 156.000 9 940 0 0 0 30.8000 156.000 6 106 945 30.3000 155.300 TC 100 30.1288 155.513 4 105 30.3000 155.300 100 945 300 20 16
1952258N18178 1952 66 WP MM OLIVE 1952-09-18 21:00:00 TS 31.3643 156.006 main 1474 1474 PPP______PPP__ WP131952 31.2653 155.794 95 2 31.5702 156.393 9 945 0 0 31.6496 156.341 6 101 947 31.2653 155.794 TC 95 31.1699 155.917 4 97 31.2653 155.794 95 948 270 21 26
1952258N18178 1952 66 WP MM OLIVE 1952-09-19 00:00:00 TS 32.2833 156.600 950 tokyo main 1491 1491 OOO______OOO__ jtwc_wp WP131952 32.2000 156.500 90 2 32.4000 156.800 9 950 0 0 0 32.5000 156.800 5 97 950 32.2000 156.500 TC 90 32.2000 156.500 4 90 32.2000 156.500 90 952 240 20 27
1952258N18178 1952 66 WP MM OLIVE 1952-09-19 03:00:00 TS 33.1833 157.099 main 1500 1451 PPP______PPP__ WP131952 33.1562 157.128 82 1 33.3194 156.866 9 950 0 0 33.2145 157.279 5 97 950 33.1562 157.128 TC 82 33.0976 157.069 4 83 33.1562 157.128 82 955 210 21 29
1952258N18178 1952 66 WP MM OLIVE 1952-09-19 06:00:00 TS 34.1304 157.837 950 tokyo main 1451 1405 OOO______OPO__ jtwc_wp WP131952 34.1000 157.900 75 1 34.4000 157.400 9 950 0 0 0 34.1000 158.100 5 97 950 34.1000 157.900 TC 75 33.9823 157.824 4 77 34.1000 157.900 75 958 180 26 39
1952258N18178 1952 66 WP MM OLIVE 1952-09-19 09:00:00 TS 35.1670 159.034 main 1396 1374 PPP______PPP__ WP131952 34.9762 158.885 70 1 35.7084 159.220 9 950 0 0 35.4636 159.514 5 97 952 34.9762 158.885 TC 70 34.9014 158.816 4 71 34.9762 158.885 70 960 210 31 46
1952258N18178 1952 66 WP MM OLIVE 1952-09-19 12:00:00 TS 36.2500 160.533 950 tokyo main 1371 1363 OOO______OOO__ jtwc_wp WP131952 35.9000 160.100 65 1 37.0000 161.500 9 950 0 0 0 36.9000 161.300 5 97 955 35.9000 160.100 TC 65 35.9000 160.100 4 65 35.9000 160.100 65 963 240 32 49
1952258N18178 1952 66 WP MM OLIVE 1952-09-19 15:00:00 TS 37.3126 162.048 main 1366 1364 PPP______PPP__ WP131952 36.9412 161.400 60 0 38.0384 163.269 9 955 0 0 38.0076 163.098 5 92 957 36.9412 161.400 TC 60 37.0060 161.718 4 61 36.9412 161.400 60 965 210 34 50
1952258N18178 1952 66 WP MM OLIVE 1952-09-19 18:00:00 TS 38.4393 163.864 960 tokyo main 1396 1394 OOO______OPO__ jtwc_wp WP131952 38.1000 163.100 55 0 39.0000 165.000 9 960 0 0 0 39.0000 165.000 5 87 960 38.1000 163.100 TC 55 38.1881 163.636 4 57 38.1000 163.100 55 968 180 39 54
1952258N18178 1952 66 WP MM OLIVE 1952-09-19 21:00:00 TS 39.6279 166.126 main 1421 1414 PPP______PPP__ WP131952 39.3785 165.488 52 0 40.0019 167.038 9 965 0 0 40.0073 167.026 5 82 965 39.3785 165.488 TC 52 39.4008 165.788 4 53 39.3464 165.395 52 970 210 43 57
1952258N18178 1952 66 WP MM OLIVE 1952-09-20 00:00:00 MX 40.7778 168.500 970 tokyo main 1427 1427 OOO______OOO__ jtwc_wp WP131952 40.6000 168.100 50 0 41.0000 169.000 9 970 0 0 0 41.0000 169.000 9 77 970 40.6000 168.100 TC 50 40.6000 168.100 2 50 40.6000 168.100 50 972 240 40 58
1952258N18178 1952 66 WP MM OLIVE 1952-09-20 03:00:00 MX 41.7927 170.630 main 1450 1450 PPP______P____ WP131952 41.5893 170.565 50 0 41.9946 170.583 9 975 0 0 41.9976 170.809 9 72 972 41.5893 170.565 TC 50 2 35 56
1952258N18178 1952 66 WP MM OLIVE 1952-09-20 06:00:00 MX 42.7500 172.350 980 tokyo main 1458 1429 OOO______O____ jtwc_wp WP131952 42.5000 172.500 50 0 43.0000 172.000 9 980 0 0 0 43.0000 172.400 9 68 975 42.5000 172.500 TC 50 2 29 47
1952258N18178 1952 66 WP MM OLIVE 1952-09-20 09:00:00 MX 43.7583 173.507 main 1421 1392 PPP______P____ WP131952 43.5342 173.369 47 0 43.9839 173.527 9 980 0 0 43.9809 173.761 9 63 977 43.5342 173.369 TC 47 2 25 38
1952258N18178 1952 66 WP MM OLIVE 1952-09-20 12:00:00 MX 44.7500 174.500 980 tokyo main 1389 1365 OOO______O____ jtwc_wp WP131952 44.5000 174.000 45 0 45.0000 175.000 9 980 0 0 0 45.0000 175.000 9 58 980 44.5000 174.000 TC 45 25 42
1952258N18178 1952 66 WP MM OLIVE 1952-09-20 15:00:00 MX 45.6242 175.889 main 1360 1226 PPP______P____ WP131952 45.2065 175.281 42 0 46.0412 176.513 9 980 0 0 46.0424 176.482 9 58 980 45.2065 175.281 TC 42 26 49
1952258N18178 1952 66 WP MM OLIVE 1952-09-20 18:00:00 MX 46.4533 177.327 980 tokyo main 1213 1080 OOO______O____ jtwc_wp WP131952 45.8000 177.000 40 0 47.2000 177.700 9 980 0 0 0 47.2000 177.700 9 58 980 45.8000 177.000 TC 40 26 48
1952258N18178 1952 66 WP MM OLIVE 1952-09-20 21:00:00 MX 47.3944 178.721 main 1067 927 PPP______P____ WP131952 46.4635 179.170 45 0 48.6819 178.036 9 982 0 0 48.5428 178.297 9 58 982 46.4635 179.170 TC 45 26 54
1952258N18178 1952 66 EP CP OLIVE 1952-09-21 00:00:00 MX 48.0000 180.500 985 tokyo main 922 797 OOO______O____ jtwc_wp WP131952 47.0000 -178.500 50 0 50.0000 178.500 6 985 0 0 0 50.0000 178.500 9 58 985 47.0000 181.500 TC 50 29 78
1952258N18178 1952 66 EP CP OLIVE 1952-09-21 03:00:00 MX 47.9834 182.933 main 792 696 PP_______P____ WP131952 47.3017 -176.343 52 0 50.7103 -179.959 6 985 0 0 9 47.3017 -176.343 TC 52 30 90
1952258N18178 1952 66 EP CP OLIVE 1952-09-21 06:00:00 MX 48.0000 185.043 main 692 648 OO_______O____ jtwc_wp WP131952 47.5000 -174.500 55 0 51.0000 182.300 6 985 0 0 0 47.5000 185.500 TC 55 26 95
1952258N18178 1952 66 EP CP OLIVE 1952-09-21 09:00:00 TS 47.7326 186.883 main 648 588 P________P____ WP131952 47.7326 -173.117 52 0 6 0 0 47.7326 -173.117 TC 52 20 90
1952258N18178 1952 66 EP CP OLIVE 1952-09-21 12:00:00 TS 48.0000 188.000 main 585 O________O____ jtwc_wp WP131952 48.0000 -172.000 50 0 48.0000 188.000 TC 50 16 70

デジタル台風データ・検索

IBTrACS Databaseについて

本データベースは、米国NOAAが公開する1842年以降の世界の熱帯低気圧のベストトラックデータアーカイブInternational Best Track Archive for Climate Stewardship (IBTrACS)を、ウェブで閲覧しやすい形式に変換したものです。

最終更新日:2021-10-19